Time;durP1;ratioP1;P1;durP2;ratioP2;P2;SDS_P1;SDS_P2;PMS_P1;PMS_P2;Temp;Humidity;BMP_temperature;BMP_pressure;BME280_temperature;BME280_humidity;BME280_pressure;Samples;Min_cycle;Max_cycle;Signal;HPM_P1;HPM_P2
2022/05/24 00:00:31;;;;;;;10.20;6.30;;;;;;;18.19;71.68;94405.06;5054065;28;20453;-83
2022/05/24 00:02:58;;;;;;;6.53;5.93;;;;;;;18.24;71.66;94392.88;5054219;28;20453;-83
2022/05/24 00:05:27;;;;;;;6.80;6.03;;;;;;;18.02;72.53;94393.06;5054385;28;20444;-83
2022/05/24 00:07:55;;;;;;;5.93;5.33;;;;;;;18.09;72.90;94399.25;5054130;28;20477;-83
2022/05/24 00:10:24;;;;;;;6.90;4.80;;;;;;;17.95;73.41;94392.97;5054283;28;20442;-83
2022/05/24 00:12:53;;;;;;;12.43;5.87;;;;;;;17.74;74.70;94391.09;5053872;28;20453;-83
2022/05/24 00:15:23;;;;;;;5.00;4.60;;;;;;;17.68;75.27;94391.03;5054020;28;20452;-83
2022/05/24 00:17:53;;;;;;;5.80;4.97;;;;;;;17.75;75.06;94387.44;5054026;28;20457;-83
2022/05/24 00:20:20;;;;;;;6.10;5.60;;;;;;;17.89;74.64;94389.22;5053639;28;20449;-83
2022/05/24 00:22:47;;;;;;;6.17;5.47;;;;;;;18.01;74.54;94397.53;5053829;28;20461;-83
2022/05/24 00:25:14;;;;;;;6.77;5.23;;;;;;;18.02;74.09;94382.44;5053807;28;20448;-83
2022/05/24 00:27:41;;;;;;;5.47;5.03;;;;;;;18.03;73.46;94376.09;5053522;28;20568;-83
2022/05/24 00:30:10;;;;;;;6.73;6.03;;;;;;;17.97;73.87;94383.00;5053510;28;20936;-83
2022/05/24 00:32:38;;;;;;;6.60;5.80;;;;;;;17.95;74.63;94380.53;5053587;28;20476;-83
2022/05/24 00:35:05;;;;;;;7.97;6.10;;;;;;;17.89;74.23;94375.13;5053486;28;20450;-83
2022/05/24 00:37:35;;;;;;;7.10;6.30;;;;;;;17.99;74.82;94382.81;5053643;28;20442;-83
2022/05/24 00:40:01;;;;;;;6.67;5.97;;;;;;;18.06;74.47;94387.16;5053235;28;20446;-83
2022/05/24 00:42:32;;;;;;;7.07;6.47;;;;;;;18.09;73.82;94378.00;5053338;28;20461;-83
2022/05/24 00:45:05;;;;;;;8.23;6.03;;;;;;;18.18;73.84;94379.53;5053258;28;20456;-83
2022/05/24 00:47:37;;;;;;;6.00;5.50;;;;;;;18.26;73.79;94379.41;5053320;28;20481;-83
2022/05/24 00:50:10;;;;;;;6.30;5.73;;;;;;;18.36;73.95;94385.22;5053348;28;20450;-83
2022/05/24 00:52:46;;;;;;;6.73;6.13;;;;;;;18.45;72.88;94376.09;5053252;28;20442;-82
2022/05/24 00:55:21;;;;;;;6.73;5.90;;;;;;;18.53;72.44;94386.63;5052886;28;20807;-83
2022/05/24 00:57:55;;;;;;;6.67;6.00;;;;;;;18.62;72.72;94381.16;5053132;28;20791;-83
2022/05/24 01:00:23;;;;;;;6.83;5.60;;;;;;;18.67;71.95;94384.91;5053003;28;20445;-82
2022/05/24 01:02:51;;;;;;;6.50;5.43;;;;;;;18.74;72.17;94390.28;5052848;28;20454;-83
2022/05/24 01:05:22;;;;;;;6.60;6.00;;;;;;;18.76;71.96;94389.06;5052689;28;20453;-84
2022/05/24 01:07:49;;;;;;;6.73;6.13;;;;;;;18.80;71.51;94397.50;5052721;28;20492;-83
2022/05/24 01:10:20;;;;;;;8.20;6.20;;;;;;;18.86;71.74;94399.41;5052961;28;20445;-83
2022/05/24 01:12:52;;;;;;;6.20;5.57;;;;;;;18.80;71.60;94390.34;5052683;28;20517;-83
2022/05/24 01:15:20;;;;;;;8.80;6.30;;;;;;;18.89;70.78;94399.00;5052922;28;20869;-82
2022/05/24 01:17:50;;;;;;;8.67;6.43;;;;;;;18.93;70.50;94397.59;5052583;28;20541;-83
2022/05/24 01:20:19;;;;;;;6.70;5.90;;;;;;;18.92;70.67;94389.81;5052815;28;20441;-84
2022/05/24 01:23:13;;;;;;;8.33;6.57;;;;;;;18.86;70.88;94391.41;5052314;28;20462;-84
2022/05/24 01:25:53;;;;;;;7.47;6.40;;;;;;;18.84;70.50;94394.28;5030476;28;20881;-83
2022/05/24 01:28:25;;;;;;;10.13;6.53;;;;;;;18.86;70.57;94391.41;5030682;28;21031;-83
2022/05/24 01:30:52;;;;;;;8.87;6.77;;;;;;;18.52;72.68;94397.44;5030400;28;20442;-83
2022/05/24 01:36:10;;;;;;;9.10;6.67;;;;;;;18.34;73.42;94399.72;5030364;28;20481;-83
2022/05/24 01:38:40;;;;;;;6.77;6.17;;;;;;;18.08;74.30;94393.13;5030690;28;20445;-83
2022/05/24 01:41:08;;;;;;;6.60;5.30;;;;;;;17.91;74.84;94389.84;5030681;28;20526;-83
2022/05/24 01:43:38;;;;;;;7.87;5.50;;;;;;;17.82;74.73;94387.50;5030437;28;20446;-83
2022/05/24 01:46:10;;;;;;;11.30;5.60;;;;;;;17.78;74.83;94383.59;5030163;28;20443;-82
2022/05/24 01:48:41;;;;;;;6.03;5.50;;;;;;;17.33;75.80;94380.94;5030047;28;20518;-83
2022/05/24 01:51:11;;;;;;;6.83;5.90;;;;;;;17.39;76.07;94376.75;5029912;28;20447;-82
2022/05/24 01:53:42;;;;;;;5.70;5.20;;;;;;;17.57;75.69;94390.44;5029918;28;20446;-83
2022/05/24 01:56:13;;;;;;;6.03;5.53;;;;;;;17.65;75.43;94386.88;5030259;28;20443;-83
2022/05/24 01:58:45;;;;;;;6.07;5.47;;;;;;;17.74;75.09;94385.78;5029985;28;20549;-82
2022/05/24 02:01:21;;;;;;;13.17;6.00;;;;;;;17.86;75.92;94392.25;5030024;28;20442;-83
2022/05/24 02:03:48;;;;;;;6.00;5.50;;;;;;;17.84;74.60;94396.09;5051377;28;20555;-82
2022/05/24 02:06:24;;;;;;;6.07;5.37;;;;;;;17.90;74.09;94388.22;5054187;28;20445;-83
2022/05/24 02:08:52;;;;;;;5.60;4.90;;;;;;;17.98;74.29;94389.94;5056386;28;20524;-83
2022/05/24 02:11:23;;;;;;;6.83;5.10;;;;;;;18.02;74.52;94390.38;5056386;28;20445;-83
2022/05/24 02:13:54;;;;;;;6.80;6.10;;;;;;;18.04;73.48;94396.34;5056016;28;20449;-83
2022/05/24 02:16:24;;;;;;;6.60;5.30;;;;;;;18.09;74.07;94394.75;5056336;28;20448;-83
2022/05/24 02:18:54;;;;;;;5.73;5.07;;;;;;;18.17;74.19;94397.28;5056113;28;20453;-83
2022/05/24 02:21:21;;;;;;;11.73;6.63;;;;;;;18.17;74.12;94407.09;5056332;28;20533;-83
2022/05/24 02:23:50;;;;;;;8.13;6.83;;;;;;;18.26;74.06;94411.28;5056704;28;20457;-82
2022/05/24 02:26:19;;;;;;;7.83;6.97;;;;;;;18.31;73.84;94410.72;5055918;28;20959;-82
2022/05/24 02:28:50;;;;;;;11.33;7.70;;;;;;;18.32;74.11;94407.88;5056479;28;20484;-83
2022/05/24 02:31:19;;;;;;;11.73;7.40;;;;;;;18.36;73.66;94397.69;5056089;28;20487;-83
2022/05/24 02:33:47;;;;;;;7.80;6.37;;;;;;;18.36;73.63;94384.41;5055750;28;21035;-82
2022/05/24 02:36:15;;;;;;;9.13;8.20;;;;;;;18.38;73.47;94387.69;5037256;28;20457;-83
2022/05/24 02:38:42;;;;;;;13.37;7.93;;;;;;;18.25;74.17;94378.59;5056015;28;20450;-83
2022/05/24 02:43:53;;;;;;;9.73;8.73;;;;;;;17.94;75.15;94394.81;5055576;28;20432;-82
2022/05/24 02:46:23;;;;;;;8.10;7.07;;;;;;;17.60;76.26;94405.97;5055361;28;20445;-82
2022/05/24 02:48:49;;;;;;;14.03;6.63;;;;;;;17.48;77.33;94418.09;5055842;28;20485;-82
2022/05/24 02:51:18;;;;;;;15.27;6.63;;;;;;;17.49;77.16;94424.22;5053756;28;20445;-82
2022/05/24 02:53:45;;;;;;;10.07;6.63;;;;;;;17.60;78.08;94426.38;5055868;28;20441;-82
2022/05/24 02:56:13;;;;;;;9.33;7.10;;;;;;;17.72;77.22;94421.47;5055283;28;20445;-82
2022/05/24 02:58:41;;;;;;;9.60;7.00;;;;;;;17.46;77.74;94424.59;5055284;28;20457;-83
2022/05/24 03:01:13;;;;;;;11.00;6.17;;;;;;;17.51;78.98;94420.38;5055318;28;20441;-83
2022/05/24 03:03:42;;;;;;;8.17;6.20;;;;;;;17.61;79.08;94417.41;5055023;28;20452;-83
2022/05/24 03:06:09;;;;;;;9.30;6.03;;;;;;;17.80;78.28;94416.06;5053222;28;20446;-83
2022/05/24 03:11:20;;;;;;;6.50;5.90;;;;;;;17.94;77.32;94426.66;5055158;28;20900;-83
2022/05/24 03:16:31;;;;;;;11.77;6.33;;;;;;;18.14;76.00;94426.88;5055221;28;20476;-83
2022/05/24 03:19:00;;;;;;;7.37;6.40;;;;;;;18.22;75.56;94426.78;5055217;28;20442;-83
2022/05/24 03:21:27;;;;;;;7.40;6.10;;;;;;;18.30;75.35;94419.69;5055199;28;20460;-82
2022/05/24 03:23:54;;;;;;;8.43;6.93;;;;;;;18.34;75.38;94411.16;5055683;28;20476;-82
2022/05/24 03:26:21;;;;;;;7.13;6.43;;;;;;;18.44;74.52;94416.97;5055483;28;20441;-82
2022/05/24 03:28:48;;;;;;;7.30;6.60;;;;;;;18.50;74.09;94413.56;5036136;28;20488;-82
2022/05/24 03:31:16;;;;;;;13.80;6.33;;;;;;;18.55;73.82;94413.81;5055099;28;20430;-82
2022/05/24 03:33:43;;;;;;;14.27;8.20;;;;;;;18.51;74.65;94409.91;5055221;28;20806;-83
2022/05/24 03:36:12;;;;;;;10.53;8.03;;;;;;;18.49;73.59;94406.59;5055243;28;20456;-82
2022/05/24 03:38:39;;;;;;;13.03;7.07;;;;;;;18.52;73.07;94408.91;5052331;28;20548;-83
2022/05/24 03:41:06;;;;;;;11.00;7.33;;;;;;;18.50;73.76;94402.94;5048651;28;20473;-83
2022/05/24 03:43:33;;;;;;;15.20;8.57;;;;;;;18.50;73.30;94405.59;5054264;28;20940;-83
2022/05/24 03:46:02;;;;;;;12.70;7.10;;;;;;;18.58;72.91;94410.78;5054029;28;20485;-83
2022/05/24 03:48:29;;;;;;;26.27;9.60;;;;;;;18.56;72.75;94412.81;5054133;28;20507;-83
2022/05/24 03:50:57;;;;;;;12.30;7.03;;;;;;;18.69;72.25;94421.94;5054521;28;20813;-83
2022/05/24 03:53:26;;;;;;;12.10;8.00;;;;;;;18.75;72.42;94429.13;5054682;28;20449;-83
2022/05/24 03:55:54;;;;;;;9.23;7.03;;;;;;;18.78;71.75;94420.78;5055446;28;20468;-83
2022/05/24 03:58:22;;;;;;;10.13;6.90;;;;;;;18.74;72.08;94422.19;5056171;28;20426;-85
2022/05/24 04:00:49;;;;;;;12.70;8.20;;;;;;;18.65;71.57;94421.50;5037081;28;20458;-84
2022/05/24 04:03:16;;;;;;;7.93;7.10;;;;;;;18.62;72.36;94423.69;5055647;28;20924;-84
2022/05/24 04:05:44;;;;;;;9.23;7.50;;;;;;;18.50;73.09;94433.97;5055440;28;20940;-85
2022/05/24 04:08:11;;;;;;;10.33;8.07;;;;;;;18.22;75.14;94428.63;5055719;28;20481;-84
2022/05/24 04:10:40;;;;;;;9.37;8.33;;;;;;;18.45;76.02;94437.22;5055418;28;20450;-86
2022/05/24 04:13:07;;;;;;;16.27;7.93;;;;;;;18.45;75.90;94442.53;5053481;28;20854;-84
2022/05/24 04:15:34;;;;;;;12.03;7.73;;;;;;;18.40;75.91;94442.28;5055515;28;20426;-84
2022/05/24 04:18:01;;;;;;;13.60;8.27;;;;;;;18.43;75.87;94447.22;5055096;28;20500;-84
2022/05/24 04:20:37;;;;;;;20.73;7.20;;;;;;;18.52;75.89;94458.56;5055720;28;20449;-84
2022/05/24 04:23:04;;;;;;;7.97;6.13;;;;;;;18.52;75.35;94447.94;5055080;28;20464;-81
2022/05/24 04:25:34;;;;;;;11.63;7.90;;;;;;;18.63;75.14;94444.78;5054534;28;20817;-80
2022/05/24 04:28:06;;;;;;;9.33;7.00;;;;;;;18.76;74.58;94454.72;5053293;28;20475;-81
2022/05/24 04:30:33;;;;;;;6.93;6.07;;;;;;;18.87;73.90;94446.25;5053711;28;20453;-80
2022/05/24 04:33:00;;;;;;;10.73;6.57;;;;;;;18.83;72.86;94444.97;5053768;28;20472;-85
2022/05/24 04:35:27;;;;;;;8.50;6.50;;;;;;;19.03;73.40;94434.50;5053884;28;20936;-79
2022/05/24 04:37:54;;;;;;;8.47;6.93;;;;;;;19.33;72.68;94441.25;5053433;28;20801;-82
2022/05/24 04:42:18;;;;;;;9.20;6.80;;;;;;;19.59;71.44;94445.94;5053541;28;20928;-81
2022/05/24 04:43:09;;;;;;;8.93;7.40;;;;;;;19.88;68.88;94449.38;5053336;28;20523;-82
2022/05/24 04:45:36;;;;;;;11.20;7.27;;;;;;;20.01;69.02;94444.94;5053432;28;20840;-82
2022/05/24 04:48:05;;;;;;;11.37;7.03;;;;;;;20.06;66.68;94436.34;5051841;28;20484;-87
2022/05/24 04:50:32;;;;;;;10.03;6.70;;;;;;;20.29;66.33;94430.72;5037011;28;20528;-87
2022/05/24 04:52:59;;;;;;;8.17;5.90;;;;;;;20.54;65.50;94433.66;5036145;28;20440;-87
2022/05/24 04:55:28;;;;;;;17.60;13.93;;;;;;;21.15;70.87;94429.00;5054047;28;20594;-84
2022/05/24 04:57:55;;;;;;;7.43;6.63;;;;;;;21.60;63.66;94432.66;5053654;28;20466;-87
2022/05/24 05:00:25;;;;;;;10.47;8.73;;;;;;;22.15;64.15;94434.97;5053748;28;20477;-85
2022/05/24 05:02:52;;;;;;;13.47;7.60;;;;;;;22.56;60.29;94434.56;5054365;28;20537;-86
2022/05/24 05:05:20;;;;;;;9.23;6.93;;;;;;;23.01;58.35;94442.53;5054659;28;20448;-86
2022/05/24 05:07:47;;;;;;;9.63;6.80;;;;;;;23.24;58.39;94447.28;5054509;28;20486;-88
2022/05/24 05:10:15;;;;;;;7.23;6.50;;;;;;;23.21;57.90;94453.91;5054783;28;20459;-87
2022/05/24 05:12:43;;;;;;;10.40;6.20;;;;;;;23.27;58.69;94463.72;5036921;28;20430;-87
2022/05/24 05:15:11;;;;;;;6.33;5.73;;;;;;;23.42;56.98;94458.88;5054337;28;20477;-87
2022/05/24 05:17:40;;;;;;;12.60;6.47;;;;;;;23.64;56.36;94469.19;5054314;28;20458;-86
2022/05/24 05:20:08;;;;;;;9.93;6.10;;;;;;;23.73;56.81;94474.06;5053756;28;20444;-82
2022/05/24 05:22:36;;;;;;;7.40;5.47;;;;;;;23.61;56.23;94469.66;5053901;28;20453;-86
2022/05/24 05:25:04;;;;;;;8.30;6.00;;;;;;;23.36;57.69;94486.50;5053693;28;20460;-81
2022/05/24 05:27:31;;;;;;;14.57;6.83;;;;;;;23.12;57.80;94481.97;5055369;28;20450;-83
2022/05/24 05:32:45;;;;;;;10.13;6.40;;;;;;;22.66;58.44;94475.03;5054109;28;20531;-83
2022/05/24 05:35:14;;;;;;;16.00;6.80;;;;;;;22.54;60.16;94474.88;5068348;28;20516;-82
2022/05/24 05:37:42;;;;;;;20.90;8.40;;;;;;;22.37;58.55;94487.09;5035719;28;20442;-85
2022/05/24 05:43:31;;;;;;;13.33;7.23;;;;;;;21.84;60.89;94489.09;5052503;28;20471;-79
2022/05/24 05:45:59;;;;;;;8.60;7.80;;;;;;;21.56;61.53;94487.50;5053311;28;20453;-81
2022/05/24 05:48:28;;;;;;;12.93;6.97;;;;;;;21.41;61.46;94486.09;5052578;28;20469;-80
2022/05/24 05:50:55;;;;;;;16.70;7.23;;;;;;;21.19;61.92;94488.94;5053196;28;20449;-79
2022/05/24 05:53:22;;;;;;;9.47;7.50;;;;;;;21.35;62.60;94490.38;5053254;28;20893;-79
2022/05/24 05:55:49;;;;;;;9.73;7.10;;;;;;;21.67;61.00;94499.38;5053629;28;20446;-79
2022/05/24 05:58:16;;;;;;;8.57;6.27;;;;;;;22.04;60.48;94503.28;5053424;28;20437;-81
2022/05/24 06:00:43;;;;;;;9.50;6.97;;;;;;;22.47;59.90;94495.50;5053136;28;20445;-81
2022/05/24 06:03:10;;;;;;;10.97;7.07;;;;;;;22.98;58.68;94502.66;5053277;28;20456;-82
2022/05/24 06:05:38;;;;;;;9.33;6.23;;;;;;;23.52;58.09;94505.75;5053337;28;20465;-81
2022/05/24 06:08:08;;;;;;;17.43;6.30;;;;;;;24.06;53.68;94508.56;5052788;28;20493;-81
2022/05/24 06:10:36;;;;;;;7.33;6.57;;;;;;;24.60;54.21;94511.50;5048944;28;20478;-82
2022/05/24 06:13:03;;;;;;;9.37;5.70;;;;;;;24.96;51.00;94524.03;5033653;28;20532;-81
2022/05/24 06:15:31;;;;;;;16.77;7.20;;;;;;;25.16;55.19;94521.09;5035107;28;20454;-81
2022/05/24 06:17:59;;;;;;;7.77;5.83;;;;;;;25.35;50.70;94514.59;5053218;28;20457;-82
2022/05/24 06:20:28;;;;;;;7.43;5.47;;;;;;;25.54;48.89;94518.03;5053023;28;20426;-85
2022/05/24 06:22:57;;;;;;;7.03;5.37;;;;;;;25.75;48.97;94527.44;5052616;28;20511;-82
2022/05/24 06:25:26;;;;;;;13.23;6.37;;;;;;;25.82;51.54;94520.88;5053266;28;20846;-81
2022/05/24 06:27:54;;;;;;;9.63;6.90;;;;;;;26.09;51.87;94525.81;5055427;28;20791;-80
2022/05/24 06:30:22;;;;;;;9.00;5.93;;;;;;;26.20;47.87;94523.09;5052913;28;20450;-83
2022/05/24 06:32:50;;;;;;;14.43;6.60;;;;;;;26.17;47.52;94517.38;5053438;28;20497;-82
2022/05/24 06:35:17;;;;;;;9.97;7.07;;;;;;;26.14;48.11;94515.16;5052853;28;20905;-81
2022/05/24 06:37:44;;;;;;;11.30;7.27;;;;;;;26.33;47.24;94511.28;5053038;28;20457;-80
2022/05/24 06:40:15;;;;;;;7.93;7.00;;;;;;;26.59;47.36;94503.75;5017556;28;20970;-81
2022/05/24 06:42:42;;;;;;;8.50;7.50;;;;;;;26.71;47.84;94505.34;5052948;28;20821;-81
2022/05/24 06:45:10;;;;;;;10.70;7.90;;;;;;;26.86;46.19;94492.16;5017952;28;20446;-80
2022/05/24 06:47:38;;;;;;;12.30;6.90;;;;;;;26.80;45.31;94485.06;5017657;28;20446;-81
2022/05/24 06:50:05;;;;;;;7.50;6.70;;;;;;;26.89;45.27;94482.81;5052490;28;20503;-80
2022/05/24 06:52:32;;;;;;;10.17;8.90;;;;;;;27.00;47.07;94473.91;5055130;28;20442;-79
2022/05/24 06:55:00;;;;;;;8.07;7.30;;;;;;;27.15;49.43;94476.84;5055583;28;20912;-78
2022/05/24 06:57:28;;;;;;;11.90;7.13;;;;;;;27.14;47.22;94474.41;5037590;28;20442;-82
2022/05/24 07:02:40;;;;;;;7.70;5.50;;;;;;;27.14;46.14;94477.91;5057124;28;21016;-86
2022/05/24 07:05:12;;;;;;;9.50;6.33;;;;;;;27.07;45.98;94476.44;5058286;28;20430;-84
2022/05/24 07:07:40;;;;;;;6.27;5.67;;;;;;;27.07;45.66;94469.16;5056329;28;20521;-85
2022/05/24 07:10:10;;;;;;;6.13;5.53;;;;;;;27.03;45.73;94468.03;5056068;28;20572;-87
2022/05/24 07:12:39;;;;;;;6.30;5.80;;;;;;;27.28;45.25;94472.22;5057013;28;20489;-89
2022/05/24 07:15:07;;;;;;;6.13;5.53;;;;;;;27.34;44.07;94474.75;5056713;28;20460;-87
2022/05/24 07:17:34;;;;;;;7.43;6.10;;;;;;;27.51;43.33;94472.06;5057026;28;20453;-86
2022/05/24 07:20:02;;;;;;;8.40;6.07;;;;;;;27.68;42.74;94478.28;5056342;28;20458;-86
2022/05/24 07:22:29;;;;;;;6.87;6.13;;;;;;;27.73;44.53;94483.75;5056071;28;20454;-86
2022/05/24 07:24:56;;;;;;;11.40;6.63;;;;;;;27.79;42.92;94483.88;5056250;28;20430;-86
2022/05/24 07:27:23;;;;;;;8.17;5.80;;;;;;;27.92;42.85;94491.59;5056500;28;20434;-84
2022/05/24 07:29:52;;;;;;;6.77;6.17;;;;;;;27.64;43.25;94484.44;5039971;28;20490;-81
2022/05/24 07:32:19;;;;;;;7.60;6.50;;;;;;;27.45;44.07;94481.13;5055580;28;20502;-83
2022/05/24 07:34:45;;;;;;;9.90;6.53;;;;;;;27.29;43.45;94484.63;5055970;28;20935;-85
2022/05/24 07:37:17;;;;;;;11.80;6.63;;;;;;;26.93;43.73;94478.59;5055652;28;20437;-85
2022/05/24 07:39:44;;;;;;;8.27;6.87;;;;;;;26.93;44.90;94481.28;5055983;28;20793;-86
2022/05/24 07:47:41;;;;;;;8.47;6.17;;;;;;;26.93;46.82;94465.13;5055520;28;20437;-88
2022/05/24 07:50:09;;;;;;;8.87;7.00;;;;;;;27.14;44.33;94485.97;5055742;28;20477;-85
2022/05/24 07:52:36;;;;;;;7.40;6.30;;;;;;;26.97;44.83;94473.53;5021451;28;20456;-86
2022/05/24 07:55:03;;;;;;;14.23;6.87;;;;;;;26.89;46.24;94472.06;5055299;28;20452;-86
2022/05/24 07:57:30;;;;;;;10.23;6.10;;;;;;;27.00;46.11;94467.69;5055434;28;20819;-87
2022/05/24 07:59:59;;;;;;;10.83;5.93;;;;;;;26.59;46.14;94476.81;5055317;28;20433;-86
2022/05/24 08:02:26;;;;;;;7.00;6.37;;;;;;;26.22;47.07;94463.69;5055845;28;20438;-87
2022/05/24 08:04:54;;;;;;;12.80;6.70;;;;;;;26.36;48.12;94466.97;5036166;28;20438;-85
2022/05/24 08:07:21;;;;;;;16.40;5.77;;;;;;;26.58;49.08;94464.41;5055129;28;20430;-85
2022/05/24 08:09:48;;;;;;;9.40;6.27;;;;;;;26.22;49.74;94453.72;5036784;28;20485;-86
2022/05/24 08:12:15;;;;;;;6.80;6.13;;;;;;;25.74;50.34;94458.59;5055074;28;20448;-85
2022/05/24 08:21:29;;;;;;;10.00;5.80;;;;;;;26.20;49.95;94468.47;5054697;28;20420;-85
2022/05/24 08:23:57;;;;;;;8.40;6.50;;;;;;;26.04;50.84;94470.03;5054009;28;20499;-85
2022/05/24 08:26:24;;;;;;;8.63;5.70;;;;;;;26.20;50.68;94466.59;5053976;28;20944;-86
2022/05/24 08:28:51;;;;;;;5.80;5.30;;;;;;;26.40;50.12;94468.94;5053601;28;20511;-85
2022/05/24 08:31:19;;;;;;;7.03;6.33;;;;;;;26.51;49.69;94465.38;5053709;28;20449;-86
2022/05/24 08:33:47;;;;;;;7.43;6.37;;;;;;;26.55;50.47;94474.63;5053464;28;20569;-85
2022/05/24 08:36:15;;;;;;;6.10;5.60;;;;;;;26.59;49.76;94472.25;5053727;28;20450;-86
2022/05/24 08:38:43;;;;;;;9.00;6.03;;;;;;;26.80;49.93;94473.47;5053711;28;20448;-85
2022/05/24 08:41:16;;;;;;;7.73;6.10;;;;;;;26.97;48.83;94465.44;5018540;28;20438;-85
2022/05/24 08:49:52;;;;;;;9.20;6.80;;;;;;;27.16;49.24;94456.91;5053232;28;20575;-86
2022/05/24 08:52:20;;;;;;;7.07;6.40;;;;;;;27.01;49.16;94463.94;5053139;28;20435;-85
2022/05/24 08:54:49;;;;;;;7.17;6.30;;;;;;;26.98;50.38;94475.97;5053313;28;20973;-85
2022/05/24 08:57:24;;;;;;;9.57;5.60;;;;;;;26.99;48.13;94472.25;5052957;28;20952;-85
2022/05/24 08:59:57;;;;;;;8.67;7.93;;;;;;;26.85;49.95;94476.25;5053390;28;20449;-86
2022/05/24 09:02:24;;;;;;;7.27;5.70;;;;;;;27.03;50.07;94468.03;5053561;28;20796;-85
2022/05/24 09:04:52;;;;;;;7.73;6.93;;;;;;;27.13;49.44;94472.75;5050935;28;20438;-85
2022/05/24 09:07:28;;;;;;;6.20;5.70;;;;;;;26.99;48.13;94469.56;5052927;28;20445;-87
2022/05/24 09:10:05;;;;;;;9.40;6.30;;;;;;;26.98;50.71;94469.78;5053087;28;20492;-85
2022/05/24 09:12:46;;;;;;;6.30;5.77;;;;;;;26.93;49.17;94465.13;5054181;28;20455;-85
2022/05/24 09:15:23;;;;;;;7.80;5.70;;;;;;;27.19;50.25;94476.38;5055329;28;20777;-85
2022/05/24 09:18:03;;;;;;;8.43;6.30;;;;;;;27.03;48.68;94467.19;5052747;28;20445;-85
2022/05/24 09:20:35;;;;;;;8.40;5.90;;;;;;;26.97;49.33;94455.50;5052745;28;20533;-85
2022/05/24 09:23:19;;;;;;;8.70;6.80;;;;;;;26.96;49.48;94451.16;5052838;28;20457;-85
2022/05/24 09:25:59;;;;;;;6.80;6.07;;;;;;;26.98;51.49;94450.94;5053158;28;20452;-87
2022/05/24 09:28:44;;;;;;;7.33;5.97;;;;;;;26.51;50.59;94460.00;5053225;28;20453;-85
2022/05/24 09:31:19;;;;;;;8.27;5.60;;;;;;;26.20;52.79;94450.47;5034183;28;20437;-86
2022/05/24 09:33:46;;;;;;;6.67;5.87;;;;;;;26.48;52.65;94449.72;5052395;28;20473;-86
2022/05/24 09:36:31;;;;;;;7.43;6.20;;;;;;;26.73;51.79;94430.56;5052614;28;20442;-86
2022/05/24 09:38:58;;;;;;;7.30;6.17;;;;;;;26.72;50.89;94428.09;5052601;28;20442;-86
2022/05/24 09:41:27;;;;;;;7.77;6.43;;;;;;;26.79;51.81;94439.53;5033908;28;20430;-86
2022/05/24 09:44:07;;;;;;;9.97;5.90;;;;;;;26.47;52.83;94442.69;5052476;28;20442;-86
2022/05/24 09:46:36;;;;;;;7.10;6.50;;;;;;;26.40;53.61;94442.03;5052834;28;20441;-85
2022/05/24 09:49:07;;;;;;;8.93;6.77;;;;;;;26.39;52.82;94444.97;5052835;28;20449;-85
2022/05/24 09:51:40;;;;;;;9.60;8.70;;;;;;;26.35;53.05;94443.81;5052454;28;20536;-85
2022/05/24 09:54:14;;;;;;;20.30;15.63;;;;;;;26.28;52.40;94438.50;5052513;28;20445;-86
2022/05/24 09:56:45;;;;;;;24.90;20.50;;;;;;;26.31;52.67;94435.38;5052630;28;20954;-86
2022/05/24 09:59:23;;;;;;;13.20;10.93;;;;;;;26.22;53.31;94432.22;5052467;28;21192;-83
2022/05/24 10:01:50;;;;;;;6.80;6.10;;;;;;;26.07;54.01;94433.78;5052356;28;20994;-85
2022/05/24 10:04:26;;;;;;;8.37;7.50;;;;;;;26.15;53.44;94438.78;5050007;28;20453;-84
2022/05/24 10:06:57;;;;;;;9.00;6.97;;;;;;;26.19;53.32;94429.19;5052588;28;20445;-86
2022/05/24 10:09:48;;;;;;;7.67;6.60;;;;;;;25.71;54.23;94432.16;5052531;28;20484;-85
2022/05/24 10:12:28;;;;;;;7.90;7.10;;;;;;;25.75;54.44;94438.75;5052264;28;20460;-85
2022/05/24 10:15:05;;;;;;;10.43;6.37;;;;;;;25.62;54.71;94434.38;5052108;28;20448;-85
2022/05/24 10:17:42;;;;;;;7.77;6.50;;;;;;;25.72;55.12;94440.00;5050135;28;20783;-86
2022/05/24 10:20:17;;;;;;;7.17;6.50;;;;;;;25.78;54.63;94433.69;5052616;28;20453;-85
2022/05/24 10:22:51;;;;;;;8.93;8.00;;;;;;;25.91;55.29;94433.44;5052126;28;20481;-86
2022/05/24 10:25:23;;;;;;;12.30;7.40;;;;;;;25.97;54.32;94426.28;5051991;28;20460;-86
2022/05/24 10:28:09;;;;;;;7.10;6.50;;;;;;;25.91;55.89;94424.56;5054895;28;20446;-86
2022/05/24 10:30:49;;;;;;;8.10;7.07;;;;;;;26.02;56.95;94433.66;5056218;28;20492;-83
2022/05/24 10:39:26;;;;;;;11.90;6.30;;;;;;;26.15;55.49;94433.41;5057227;28;20425;-81
2022/05/24 10:42:06;;;;;;;8.30;6.67;;;;;;;26.28;55.85;94427.75;5056993;28;20442;-78
2022/05/24 10:44:40;;;;;;;7.87;7.13;;;;;;;26.21;54.51;94421.69;5057042;28;20508;-80
2022/05/24 10:47:13;;;;;;;7.70;7.10;;;;;;;25.96;54.20;94400.47;5056762;28;20807;-82
2022/05/24 10:49:47;;;;;;;8.90;7.40;;;;;;;26.15;55.78;94401.94;5057322;28;20877;-81
2022/05/24 10:52:34;;;;;;;10.67;8.13;;;;;;;26.41;54.04;94392.53;5056922;28;20441;-81
2022/05/24 10:55:07;;;;;;;12.00;7.73;;;;;;;26.56;52.92;94400.06;5056381;28;20780;-81
2022/05/24 10:57:41;;;;;;;10.87;8.10;;;;;;;26.64;54.03;94391.63;5056410;28;20453;-80
2022/05/24 11:00:14;;;;;;;9.97;8.83;;;;;;;26.61;53.43;94399.38;5056574;28;20476;-78
2022/05/24 11:02:49;;;;;;;10.87;7.63;;;;;;;26.66;52.04;94400.28;5056841;28;20526;-84
2022/05/24 11:05:21;;;;;;;8.43;7.77;;;;;;;26.72;53.78;94398.50;5056449;28;20516;-84
2022/05/24 11:07:52;;;;;;;12.00;7.50;;;;;;;26.91;53.35;94402.63;5056934;28;20512;-79
2022/05/24 11:10:25;;;;;;;8.40;7.60;;;;;;;27.08;53.63;94408.84;5056041;28;20492;-81
2022/05/24 11:12:54;;;;;;;8.40;6.70;;;;;;;27.15;53.42;94406.81;5056390;28;20805;-80
2022/05/24 11:15:32;;;;;;;8.57;7.40;;;;;;;27.16;50.82;94400.34;5057001;28;20796;-80
2022/05/24 11:18:00;;;;;;;8.33;7.57;;;;;;;27.14;51.64;94383.63;5056570;28;20422;-85
2022/05/24 11:20:35;;;;;;;14.27;8.23;;;;;;;27.32;52.18;94381.75;5056299;28;20434;-85
2022/05/24 11:23:14;;;;;;;7.93;7.03;;;;;;;27.39;51.85;94374.31;5057181;28;20457;-87
2022/05/24 11:25:45;;;;;;;10.93;7.87;;;;;;;27.23;50.54;94367.06;5056061;28;20461;-86
2022/05/24 11:28:26;;;;;;;10.30;7.53;;;;;;;27.11;51.88;94361.75;5056253;28;20438;-91
2022/05/24 11:30:57;;;;;;;7.80;7.07;;;;;;;27.31;54.01;94355.88;5056184;28;20473;-80
2022/05/24 11:33:36;;;;;;;13.07;7.20;;;;;;;27.31;51.80;94351.28;5055817;28;20470;-78
2022/05/24 11:36:40;;;;;;;12.13;7.93;;;;;;;27.08;53.16;94352.28;5055533;28;20827;-78
2022/05/24 11:39:10;;;;;;;8.93;8.03;;;;;;;27.19;52.21;94341.69;4973624;28;20788;-85
2022/05/24 11:41:37;;;;;;;11.20;7.30;;;;;;;27.27;51.23;94341.25;4975261;28;20460;-80
2022/05/24 11:44:08;;;;;;;9.47;8.20;;;;;;;27.31;52.10;94335.13;4977032;28;20445;-82
2022/05/24 11:46:44;;;;;;;9.73;7.33;;;;;;;27.36;50.43;94337.06;4984094;28;20492;-82
2022/05/24 11:49:28;;;;;;;8.63;7.93;;;;;;;27.49;51.26;94342.13;4974755;28;20516;-81
2022/05/24 11:51:56;;;;;;;12.30;8.37;;;;;;;27.65;50.71;94335.09;4974760;28;20441;-82
2022/05/24 11:54:55;;;;;;;9.00;6.80;;;;;;;27.74;50.20;94325.50;4974890;28;20461;-81
2022/05/24 11:57:40;;;;;;;10.63;8.40;;;;;;;27.69;49.55;94318.16;4935472;29;20459;-81
2022/05/24 12:00:09;;;;;;;9.40;7.60;;;;;;;27.36;51.16;94313.63;4935760;29;20962;-81
2022/05/24 12:08:35;;;;;;;9.37;8.40;;;;;;;27.49;50.84;94299.00;4935371;29;20435;-80
2022/05/24 12:11:15;;;;;;;8.60;7.37;;;;;;;27.60;50.26;94289.97;4935672;29;20487;-81
2022/05/24 12:13:57;;;;;;;8.70;7.80;;;;;;;27.51;52.10;94280.69;4934798;29;20455;-80
2022/05/24 12:16:38;;;;;;;11.57;8.23;;;;;;;27.61;52.94;94286.22;4983885;28;20570;-80
2022/05/24 12:19:09;;;;;;;10.07;7.30;;;;;;;27.48;52.23;94297.38;5015824;28;20447;-79
2022/05/24 12:21:42;;;;;;;9.13;8.13;;;;;;;27.58;52.44;94291.28;5012420;28;20486;-79
2022/05/24 12:24:52;;;;;;;13.50;8.33;;;;;;;27.58;52.07;94289.41;5012190;28;20466;-82
2022/05/24 12:27:31;;;;;;;11.30;7.53;;;;;;;27.58;52.52;94275.94;5012163;28;20483;-80
2022/05/24 12:30:01;;;;;;;10.00;8.27;;;;;;;27.79;52.59;94282.44;5012468;28;20487;-80
2022/05/24 12:32:32;;;;;;;8.83;7.93;;;;;;;27.94;50.94;94289.88;5012102;28;20826;-79
2022/05/24 12:35:07;;;;;;;14.67;8.57;;;;;;;28.03;51.20;94280.25;5044027;28;20472;-79
2022/05/24 12:37:36;;;;;;;10.63;8.10;;;;;;;28.09;49.97;94290.06;5054467;28;20437;-80